createdAt,value
2022-12-14T00:01:59.036Z,-10.11
2022-12-14T00:04:31.792Z,-10.08
2022-12-14T00:07:04.208Z,-10.10
2022-12-14T00:09:36.805Z,-10.06
2022-12-14T00:12:12.038Z,-10.05
2022-12-14T00:14:44.697Z,-10.01
2022-12-14T00:17:18.806Z,-10.03
2022-12-14T00:19:51.999Z,-10.12
2022-12-14T00:22:24.990Z,-10.12
2022-12-14T00:24:58.078Z,-10.14
2022-12-14T00:27:30.558Z,-10.18
2022-12-14T00:30:03.337Z,-10.19
2022-12-14T00:32:37.546Z,-10.17
2022-12-14T00:35:12.438Z,-10.16
2022-12-14T00:37:45.248Z,-10.19
2022-12-14T00:40:22.377Z,-10.23
2022-12-14T00:42:54.690Z,-10.31
2022-12-14T00:45:27.568Z,-10.31
2022-12-14T00:48:00.119Z,-10.31
2022-12-14T00:50:32.865Z,-10.37
2022-12-14T00:53:05.505Z,-10.43
2022-12-14T00:55:42.957Z,-10.41
2022-12-14T00:58:17.197Z,-10.39
2022-12-14T01:00:59.522Z,-10.40
2022-12-14T01:03:33.118Z,-10.55
2022-12-14T01:06:04.329Z,-10.72
2022-12-14T01:08:36.881Z,-10.68
2022-12-14T01:11:11.145Z,-10.71
2022-12-14T01:13:45.069Z,-10.75
2022-12-14T01:16:23.949Z,-10.79
2022-12-14T01:18:56.477Z,-10.85
2022-12-14T01:21:29.749Z,-10.89
2022-12-14T01:24:22.179Z,-10.98
2022-12-14T01:27:08.096Z,-11.01
2022-12-14T01:29:40.598Z,-11.08
2022-12-14T01:32:13.286Z,-11.15
2022-12-14T01:34:45.617Z,-11.16
2022-12-14T01:37:18.571Z,-11.26
2022-12-14T01:39:51.699Z,-11.22
2022-12-14T01:42:25.857Z,-11.33
2022-12-14T01:45:00.438Z,-11.28
2022-12-14T01:47:43.648Z,-11.25
2022-12-14T01:50:22.408Z,-11.32
2022-12-14T01:53:01.149Z,-11.31
2022-12-14T01:55:38.328Z,-11.33
2022-12-14T01:58:16.348Z,-11.40
2022-12-14T02:00:51.666Z,-11.45
2022-12-14T02:03:28.659Z,-11.41
2022-12-14T02:06:05.708Z,-11.37
2022-12-14T02:08:41.152Z,-11.43
2022-12-14T02:11:14.348Z,-11.49
2022-12-14T02:13:48.759Z,-11.55
2022-12-14T02:16:22.487Z,-11.52
2022-12-14T02:18:53.205Z,-11.53
2022-12-14T02:21:38.199Z,-11.48
2022-12-14T02:24:35.507Z,-11.40
2022-12-14T02:27:25.000Z,-11.14
2022-12-14T02:30:12.637Z,-11.01
2022-12-14T02:33:11.269Z,-10.86
2022-12-14T02:35:49.877Z,-10.63
2022-12-14T02:38:42.557Z,-10.62
2022-12-14T02:41:19.928Z,-10.58
2022-12-14T02:44:03.598Z,-10.41
2022-12-14T02:46:37.484Z,-10.28
2022-12-14T02:49:17.428Z,-10.13
2022-12-14T02:51:58.198Z,-10.18
2022-12-14T02:54:36.859Z,-10.18
2022-12-14T02:57:14.811Z,-10.12
2022-12-14T02:59:48.718Z,-10.17
2022-12-14T03:02:22.240Z,-10.14
2022-12-14T03:04:52.877Z,-10.23
2022-12-14T03:07:37.452Z,-10.31
2022-12-14T03:10:21.878Z,-10.36
2022-12-14T03:13:01.179Z,-10.43
2022-12-14T03:15:34.939Z,-10.48
2022-12-14T03:18:13.159Z,-10.54
2022-12-14T03:20:50.003Z,-10.53
2022-12-14T03:23:29.570Z,-10.53
2022-12-14T03:26:08.749Z,-10.58
2022-12-14T03:28:47.135Z,-10.57
2022-12-14T03:31:23.262Z,-10.57
2022-12-14T03:34:00.137Z,-10.57
2022-12-14T03:36:37.508Z,-10.50
2022-12-14T03:39:13.998Z,-10.40
2022-12-14T03:41:57.118Z,-10.33
2022-12-14T03:44:48.769Z,-10.23
2022-12-14T03:47:36.170Z,-10.17
2022-12-14T03:50:16.367Z,-10.06
2022-12-14T03:52:57.623Z,-9.97
2022-12-14T03:55:35.820Z,-9.97
2022-12-14T03:58:19.872Z,-10.02
2022-12-14T04:00:57.403Z,-10.07
2022-12-14T04:03:41.449Z,-10.13
2022-12-14T04:06:23.325Z,-10.14
2022-12-14T04:09:04.682Z,-10.18
2022-12-14T04:12:00.779Z,-10.14
2022-12-14T04:14:55.427Z,-10.21
2022-12-14T04:17:48.938Z,-10.24
2022-12-14T04:20:26.037Z,-10.27
2022-12-14T04:23:04.719Z,-10.35
2022-12-14T04:25:58.999Z,-10.35
2022-12-14T04:28:54.208Z,-10.39
2022-12-14T04:31:31.518Z,-10.40
2022-12-14T04:34:07.998Z,-10.41
2022-12-14T04:36:43.999Z,-10.40
2022-12-14T04:39:20.418Z,-10.36
2022-12-14T04:41:57.507Z,-10.28
2022-12-14T04:44:34.319Z,-10.25
2022-12-14T04:47:10.259Z,-10.18
2022-12-14T04:49:46.196Z,-10.15
2022-12-14T04:52:26.667Z,-10.13
2022-12-14T04:55:07.037Z,-10.07
2022-12-14T04:57:46.937Z,-9.97
2022-12-14T05:00:20.501Z,-9.87
2022-12-14T05:03:10.978Z,-9.90
2022-12-14T05:05:57.606Z,-9.91
2022-12-14T05:08:47.703Z,-9.82
2022-12-14T05:14:25.509Z,-9.56
2022-12-14T05:17:00.458Z,-9.53
2022-12-14T05:19:36.348Z,-9.60
2022-12-14T05:22:10.089Z,-9.64
2022-12-14T05:24:40.636Z,-9.67
2022-12-14T05:27:13.523Z,-9.85
2022-12-14T05:29:46.188Z,-9.88
2022-12-14T05:32:20.389Z,-9.99
2022-12-14T05:35:15.026Z,-10.01
2022-12-14T05:37:49.376Z,-10.12
2022-12-14T05:40:24.327Z,-10.08
2022-12-14T05:43:07.894Z,-10.03
2022-12-14T05:45:40.692Z,-9.98
2022-12-14T05:48:13.565Z,-10.00
2022-12-14T05:50:46.178Z,-10.14
2022-12-14T05:53:19.240Z,-10.34
2022-12-14T05:55:53.218Z,-10.41
2022-12-14T05:58:25.927Z,-10.36
2022-12-14T06:01:03.337Z,-10.34
2022-12-14T06:03:36.679Z,-10.40
2022-12-14T06:06:12.207Z,-10.34
2022-12-14T06:08:47.957Z,-10.31
2022-12-14T06:11:24.739Z,-10.38
2022-12-14T06:13:57.238Z,-10.48
2022-12-14T06:16:29.882Z,-10.52
2022-12-14T06:19:06.288Z,-10.59
2022-12-14T06:21:40.838Z,-10.67
2022-12-14T06:24:15.837Z,-10.68
2022-12-14T06:26:50.089Z,-10.69
2022-12-14T06:29:24.266Z,-10.68
2022-12-14T06:31:57.100Z,-10.75
2022-12-14T06:34:34.099Z,-10.81
2022-12-14T06:37:10.746Z,-10.78
2022-12-14T06:39:43.715Z,-10.79
2022-12-14T06:42:16.045Z,-10.76
2022-12-14T06:44:48.728Z,-10.82
2022-12-14T06:47:21.196Z,-10.79
2022-12-14T06:49:55.668Z,-10.80
2022-12-14T06:52:28.268Z,-10.73
2022-12-14T06:55:00.997Z,-10.68
2022-12-14T06:57:33.864Z,-10.60
2022-12-14T07:00:07.496Z,-10.50
2022-12-14T07:02:40.427Z,-10.45
2022-12-14T07:05:15.108Z,-10.34
2022-12-14T07:07:47.909Z,-10.26
2022-12-14T07:10:22.036Z,-10.10
2022-12-14T07:12:54.508Z,-10.03
2022-12-14T07:15:27.326Z,-10.00
2022-12-14T07:17:59.851Z,-9.91
2022-12-14T07:20:32.580Z,-9.85
2022-12-14T07:23:05.049Z,-9.69
2022-12-14T07:25:37.768Z,-9.62
2022-12-14T07:28:11.087Z,-9.45
2022-12-14T07:30:43.686Z,-9.37
2022-12-14T07:33:17.027Z,-9.30
2022-12-14T07:35:47.960Z,-9.29
2022-12-14T07:38:20.697Z,-9.17
2022-12-14T07:40:53.956Z,-9.10
2022-12-14T07:43:26.547Z,-9.06
2022-12-14T07:46:03.044Z,-8.92
2022-12-14T07:48:36.496Z,-8.74
2022-12-14T07:51:14.173Z,-8.64
2022-12-14T07:53:47.191Z,-8.56
2022-12-14T07:56:22.007Z,-8.40
2022-12-14T07:58:56.668Z,-8.30
2022-12-14T08:01:31.603Z,-8.29
2022-12-14T08:04:06.639Z,-8.25
2022-12-14T08:06:40.445Z,-8.18
2022-12-14T08:09:12.128Z,-8.11
2022-12-14T08:11:44.777Z,-8.09
2022-12-14T08:14:19.625Z,-8.01
2022-12-14T08:16:52.978Z,-7.92
2022-12-14T08:19:26.877Z,-7.81
2022-12-14T08:21:59.958Z,-7.75
2022-12-14T08:24:32.379Z,-7.61
2022-12-14T08:27:04.878Z,-7.66
2022-12-14T08:29:37.588Z,-7.65
2022-12-14T08:32:10.777Z,-7.41
2022-12-14T08:34:43.704Z,-7.37
2022-12-14T08:37:16.253Z,-7.31
2022-12-14T08:39:49.459Z,-7.22
2022-12-14T08:42:22.919Z,-7.07
2022-12-14T08:44:56.217Z,-7.01
2022-12-14T08:47:28.969Z,-6.86
2022-12-14T08:50:04.140Z,-6.70
2022-12-14T08:52:37.686Z,-6.67
2022-12-14T08:55:11.129Z,-6.44
2022-12-14T08:57:42.532Z,-6.31
2022-12-14T09:00:17.240Z,-6.31
2022-12-14T09:02:54.572Z,-6.25
2022-12-14T09:05:28.034Z,-6.24
2022-12-14T09:08:00.726Z,-6.26
2022-12-14T09:10:33.370Z,-6.48
2022-12-14T09:13:06.019Z,-6.57
2022-12-14T09:15:38.655Z,-6.59
2022-12-14T09:18:13.125Z,-6.74
2022-12-14T09:20:46.948Z,-6.79
2022-12-14T09:23:23.097Z,-6.78
2022-12-14T09:26:01.500Z,-6.84
2022-12-14T09:28:35.488Z,-6.97
2022-12-14T09:31:11.800Z,-6.84
2022-12-14T09:33:45.258Z,-6.97
2022-12-14T09:36:19.161Z,-7.02
2022-12-14T09:38:55.568Z,-7.01
2022-12-14T09:41:44.549Z,-7.20
2022-12-14T09:44:27.331Z,-7.02
2022-12-14T09:47:05.446Z,-6.85
2022-12-14T09:49:43.708Z,-6.88
2022-12-14T09:52:20.145Z,-6.77
2022-12-14T09:54:53.515Z,-6.83
2022-12-14T09:57:30.588Z,-6.81
2022-12-14T10:00:03.301Z,-6.98
2022-12-14T10:03:06.375Z,-6.99
2022-12-14T10:05:56.189Z,-6.74
2022-12-14T10:08:33.679Z,-6.49
2022-12-14T10:11:12.278Z,-6.43
2022-12-14T10:13:57.777Z,-6.45
2022-12-14T10:16:43.845Z,-6.33
2022-12-14T10:19:33.515Z,-6.17
2022-12-14T10:22:13.249Z,-5.91
2022-12-14T10:24:47.888Z,-5.75
2022-12-14T10:27:25.581Z,-5.67
2022-12-14T10:30:04.414Z,-5.66
2022-12-14T10:32:40.268Z,-5.80
2022-12-14T10:35:21.558Z,-5.77
2022-12-14T10:38:02.352Z,-5.58
2022-12-14T10:40:36.998Z,-5.52
2022-12-14T10:43:36.498Z,-5.46
2022-12-14T10:46:20.599Z,-5.59
2022-12-14T10:49:02.739Z,-5.48
2022-12-14T10:51:41.637Z,-5.43
2022-12-14T10:54:27.227Z,-5.52
2022-12-14T10:56:59.979Z,-5.47
2022-12-14T10:59:40.565Z,-5.37
2022-12-14T11:02:21.438Z,-5.71
2022-12-14T11:04:57.569Z,-5.83
2022-12-14T11:07:40.887Z,-5.90
2022-12-14T11:10:21.469Z,-5.70
2022-12-14T11:13:18.078Z,-5.56
2022-12-14T11:15:53.401Z,-5.29
2022-12-14T11:18:33.001Z,-5.32
2022-12-14T11:21:08.936Z,-5.51
2022-12-14T11:23:45.619Z,-5.48
2022-12-14T11:26:28.568Z,-5.84
2022-12-14T11:29:03.438Z,-5.89
2022-12-14T11:31:41.636Z,-5.83
2022-12-14T11:34:27.930Z,-5.75
2022-12-14T11:37:15.827Z,-5.73
2022-12-14T11:39:54.455Z,-5.75
2022-12-14T11:42:28.207Z,-5.67
2022-12-14T11:45:37.133Z,-5.76
2022-12-14T11:48:23.128Z,-5.57
2022-12-14T11:51:09.706Z,-5.48
2022-12-14T11:53:43.201Z,-5.58
2022-12-14T11:56:19.332Z,-5.58
2022-12-14T11:58:55.644Z,-5.63
2022-12-14T12:01:30.172Z,-5.65
2022-12-14T12:04:03.697Z,-5.94
2022-12-14T12:06:36.988Z,-5.81
2022-12-14T12:09:28.788Z,-5.74
2022-12-14T12:12:02.336Z,-5.82
2022-12-14T12:14:40.160Z,-5.86
2022-12-14T12:17:31.079Z,-5.92
2022-12-14T12:20:04.647Z,-5.95
2022-12-14T12:22:39.390Z,-5.97
2022-12-14T12:25:30.857Z,-5.97
2022-12-14T12:28:14.884Z,-6.05
2022-12-14T12:30:53.718Z,-5.95
2022-12-14T12:33:34.067Z,-6.05
2022-12-14T12:36:08.996Z,-6.14
2022-12-14T12:38:50.671Z,-6.05
2022-12-14T12:41:32.328Z,-6.00
2022-12-14T12:44:18.351Z,-6.06
2022-12-14T12:47:26.539Z,-6.06
2022-12-14T12:50:03.139Z,-6.06
2022-12-14T12:52:41.978Z,-6.10
2022-12-14T12:55:20.876Z,-6.27
2022-12-14T12:57:56.608Z,-6.29
2022-12-14T13:00:31.761Z,-6.35
2022-12-14T13:03:09.494Z,-6.35
2022-12-14T13:05:48.245Z,-6.30
2022-12-14T13:08:28.974Z,-6.21
2022-12-14T13:11:25.776Z,-6.25
2022-12-14T13:14:03.780Z,-6.14
2022-12-14T13:16:40.039Z,-6.24
2022-12-14T13:22:20.348Z,-6.34
2022-12-14T13:24:59.500Z,-6.39
2022-12-14T13:27:59.269Z,-6.39
2022-12-14T13:31:02.090Z,-6.35
2022-12-14T13:33:55.390Z,-6.30
2022-12-14T13:36:50.737Z,-6.34
2022-12-14T13:39:57.635Z,-6.32
2022-12-14T13:42:43.559Z,-6.34
2022-12-14T13:45:22.327Z,-6.29
2022-12-14T13:47:57.137Z,-6.29
2022-12-14T13:50:36.720Z,-6.35
2022-12-14T13:53:20.115Z,-6.38
2022-12-14T13:55:56.248Z,-6.37
2022-12-14T13:58:35.702Z,-6.33
2022-12-14T14:01:09.830Z,-6.28
2022-12-14T14:03:52.570Z,-6.28
2022-12-14T14:06:42.591Z,-6.27
2022-12-14T14:09:59.348Z,-6.25
2022-12-14T14:12:41.309Z,-6.23
2022-12-14T14:15:52.040Z,-6.18
2022-12-14T14:18:34.394Z,-6.17
2022-12-14T14:21:36.188Z,-6.14
2022-12-14T14:24:29.456Z,-6.17
2022-12-14T14:27:19.048Z,-6.16
2022-12-14T14:29:53.215Z,-6.09
2022-12-14T14:32:40.023Z,-5.98
2022-12-14T14:35:30.599Z,-5.81
2022-12-14T14:38:24.086Z,-5.69
2022-12-14T14:41:17.769Z,-5.67
2022-12-14T14:43:55.444Z,-5.61
2022-12-14T14:46:38.926Z,-5.59
2022-12-14T14:49:24.858Z,-5.55
2022-12-14T14:51:57.729Z,-5.49
2022-12-14T14:58:01.377Z,-5.50
2022-12-14T15:00:42.071Z,-5.50
2022-12-14T15:03:19.894Z,-5.49
2022-12-14T15:05:53.744Z,-5.44
2022-12-14T15:08:34.768Z,-5.35
2022-12-14T15:11:17.132Z,-5.29
2022-12-14T15:13:56.414Z,-5.14
2022-12-14T15:16:33.943Z,-5.01
2022-12-14T15:19:25.138Z,-4.93
2022-12-14T15:22:02.049Z,-4.88
2022-12-14T15:24:39.289Z,-4.86
2022-12-14T15:27:30.187Z,-4.88
2022-12-14T15:30:07.621Z,-4.90
2022-12-14T15:32:47.429Z,-4.93
2022-12-14T15:35:25.418Z,-4.91
2022-12-14T15:38:03.490Z,-4.94
2022-12-14T15:40:56.647Z,-4.94
2022-12-14T15:43:37.126Z,-4.94
2022-12-14T15:46:20.372Z,-4.93
2022-12-14T15:48:59.227Z,-4.97
2022-12-14T15:51:35.360Z,-4.93
2022-12-14T15:54:17.616Z,-4.91
2022-12-14T15:56:52.917Z,-4.91
2022-12-14T15:59:29.349Z,-4.88
2022-12-14T16:02:07.769Z,-4.86
2022-12-14T16:04:41.373Z,-4.77
2022-12-14T16:07:21.569Z,-4.73
2022-12-14T16:09:59.556Z,-4.73
2022-12-14T16:12:45.958Z,-4.76
2022-12-14T16:15:25.386Z,-4.82
2022-12-14T16:18:03.506Z,-4.79
2022-12-14T16:20:39.598Z,-4.84
2022-12-14T16:23:29.802Z,-4.86
2022-12-14T16:26:23.857Z,-4.82
2022-12-14T16:29:20.368Z,-4.76
2022-12-14T16:32:01.024Z,-4.72
2022-12-14T16:34:34.479Z,-4.61
2022-12-14T16:40:04.618Z,-4.52
2022-12-14T16:42:42.536Z,-4.46
2022-12-14T16:45:53.502Z,-4.45
2022-12-14T16:48:29.268Z,-4.40
2022-12-14T16:51:44.909Z,-4.36
2022-12-14T16:54:31.408Z,-4.35
2022-12-14T16:57:06.450Z,-4.26
2022-12-14T16:59:44.954Z,-4.22
2022-12-14T17:02:33.284Z,-4.21
2022-12-14T17:05:14.205Z,-4.16
2022-12-14T17:07:57.629Z,-4.16
2022-12-14T17:10:39.887Z,-4.12
2022-12-14T17:13:15.662Z,-4.10
2022-12-14T17:16:00.757Z,-4.17
2022-12-14T17:18:38.709Z,-4.19
2022-12-14T17:21:17.620Z,-4.17
2022-12-14T17:23:51.349Z,-4.19
2022-12-14T17:26:26.287Z,-4.23
2022-12-14T17:29:00.631Z,-4.24
2022-12-14T17:31:35.145Z,-4.19
2022-12-14T17:34:07.698Z,-4.17
2022-12-14T17:36:44.160Z,-4.12
2022-12-14T17:39:17.858Z,-4.20
2022-12-14T17:41:55.048Z,-4.12
2022-12-14T17:44:30.227Z,-4.24
2022-12-14T17:47:03.158Z,-4.21
2022-12-14T17:49:35.982Z,-4.17
2022-12-14T17:52:17.538Z,-4.05
2022-12-14T17:54:50.420Z,-4.13
2022-12-14T17:57:24.707Z,-4.13
2022-12-14T18:00:10.809Z,-4.06
2022-12-14T18:02:50.246Z,-4.07
2022-12-14T18:05:24.449Z,-4.00
2022-12-14T18:08:26.853Z,-3.96
2022-12-14T18:11:17.363Z,-4.03
2022-12-14T18:14:00.114Z,-4.04
2022-12-14T18:16:41.769Z,-3.99
2022-12-14T18:19:24.112Z,-4.02
2022-12-14T18:22:10.713Z,-3.98
2022-12-14T18:24:49.386Z,-4.00
2022-12-14T18:27:25.798Z,-4.05
2022-12-14T18:30:04.131Z,-3.96
2022-12-14T18:32:43.207Z,-3.95
2022-12-14T18:35:21.008Z,-3.97
2022-12-14T18:37:54.377Z,-3.84
2022-12-14T18:40:29.798Z,-3.93
2022-12-14T18:43:02.518Z,-3.91
2022-12-14T18:45:38.694Z,-3.92
2022-12-14T18:48:12.857Z,-3.95
2022-12-14T18:50:50.055Z,-3.96
2022-12-14T18:53:27.414Z,-3.98
2022-12-14T18:56:02.352Z,-3.99
2022-12-14T18:58:35.191Z,-3.99
2022-12-14T19:01:08.337Z,-3.94
2022-12-14T19:03:40.991Z,-3.96
2022-12-14T19:06:46.283Z,-4.00
2022-12-14T19:09:08.888Z,-3.94
2022-12-14T19:11:43.830Z,-4.02
2022-12-14T19:14:16.449Z,-4.04
2022-12-14T19:16:49.020Z,-4.10
2022-12-14T19:19:24.063Z,-4.11
2022-12-14T19:21:59.760Z,-4.02
2022-12-14T19:24:32.841Z,-4.03
2022-12-14T19:27:06.407Z,-4.00
2022-12-14T19:29:39.039Z,-3.99
2022-12-14T19:32:12.180Z,-4.01
2022-12-14T19:34:44.930Z,-4.02
2022-12-14T19:37:17.600Z,-3.95
2022-12-14T19:39:50.369Z,-4.00
2022-12-14T19:42:23.555Z,-3.95
2022-12-14T19:44:57.858Z,-3.95
2022-12-14T19:47:30.469Z,-3.97
2022-12-14T19:50:03.008Z,-3.98
2022-12-14T19:52:38.822Z,-3.95
2022-12-14T19:55:15.919Z,-3.91
2022-12-14T19:57:50.381Z,-3.85
2022-12-14T20:00:23.398Z,-3.86
2022-12-14T20:02:56.809Z,-3.88
2022-12-14T20:05:28.058Z,-3.83
2022-12-14T20:08:06.056Z,-3.87
2022-12-14T20:10:39.909Z,-3.78
2022-12-14T20:13:12.779Z,-3.83
2022-12-14T20:15:52.533Z,-3.89
2022-12-14T20:18:26.226Z,-3.91
2022-12-14T20:21:04.930Z,-3.89
2022-12-14T20:23:38.945Z,-3.92
2022-12-14T20:26:15.957Z,-3.95
2022-12-14T20:28:50.467Z,-3.92
2022-12-14T20:31:24.193Z,-4.00
2022-12-14T20:33:56.448Z,-3.95
2022-12-14T20:36:29.258Z,-3.98
2022-12-14T20:39:03.169Z,-4.02
2022-12-14T20:41:37.138Z,-3.99
2022-12-14T20:44:12.580Z,-3.96
2022-12-14T20:46:47.744Z,-3.99
2022-12-14T20:49:29.818Z,-3.97
2022-12-14T20:52:02.417Z,-3.98
2022-12-14T20:54:35.388Z,-3.95
2022-12-14T20:57:07.930Z,-3.90
2022-12-14T20:59:40.959Z,-3.89
2022-12-14T21:02:19.780Z,-3.88
2022-12-14T21:05:13.136Z,-3.88
2022-12-14T21:07:46.216Z,-3.86
2022-12-14T21:10:21.919Z,-3.85
2022-12-14T21:12:54.949Z,-3.83
2022-12-14T21:15:28.018Z,-3.82
2022-12-14T21:18:00.619Z,-3.79
2022-12-14T21:20:33.547Z,-3.67
2022-12-14T21:23:06.062Z,-3.69
2022-12-14T21:25:38.807Z,-3.66
2022-12-14T21:28:18.058Z,-3.61
2022-12-14T21:30:55.036Z,-3.58
2022-12-14T21:33:32.195Z,-3.55
2022-12-14T21:36:09.097Z,-3.60
2022-12-14T21:38:41.980Z,-3.57
2022-12-14T21:41:33.000Z,-3.51
2022-12-14T21:44:05.657Z,-3.45
2022-12-14T21:46:39.337Z,-3.41
2022-12-14T21:49:10.341Z,-3.35
2022-12-14T21:51:43.208Z,-3.36
2022-12-14T21:54:17.417Z,-3.27
2022-12-14T21:57:07.666Z,-3.26
2022-12-14T21:59:41.726Z,-3.25
2022-12-14T22:02:18.127Z,-3.21
2022-12-14T22:04:56.405Z,-3.18
2022-12-14T22:07:34.289Z,-3.11
2022-12-14T22:10:08.166Z,-3.08
2022-12-14T22:12:39.236Z,-3.10
2022-12-14T22:15:14.488Z,-3.20
2022-12-14T22:17:48.578Z,-3.22
2022-12-14T22:20:21.354Z,-3.16
2022-12-14T22:22:54.237Z,-3.18
2022-12-14T22:25:27.369Z,-3.18
2022-12-14T22:28:00.438Z,-3.28
2022-12-14T22:30:33.047Z,-3.26
2022-12-14T22:33:06.479Z,-3.27
2022-12-14T22:35:38.927Z,-3.31
2022-12-14T22:38:13.519Z,-3.27
2022-12-14T22:40:46.090Z,-3.33
2022-12-14T22:43:21.879Z,-3.41
2022-12-14T22:46:00.718Z,-3.31
2022-12-14T22:48:34.886Z,-3.42
2022-12-14T22:51:10.636Z,-3.37
2022-12-14T22:53:43.721Z,-3.31
2022-12-14T22:56:29.049Z,-3.30
2022-12-14T22:59:05.378Z,-3.25
2022-12-14T23:01:39.340Z,-3.22
2022-12-14T23:04:14.793Z,-3.17
2022-12-14T23:06:47.527Z,-3.17
2022-12-14T23:09:37.669Z,-3.11
2022-12-14T23:12:27.238Z,-3.08
2022-12-14T23:15:17.337Z,-3.11
2022-12-14T23:18:06.662Z,-3.15
2022-12-14T23:20:59.294Z,-3.11
2022-12-14T23:23:49.039Z,-3.06
2022-12-14T23:26:40.046Z,-3.15
2022-12-14T23:29:30.838Z,-3.12
2022-12-14T23:32:21.058Z,-3.10
2022-12-14T23:35:10.765Z,-3.07
2022-12-14T23:38:00.139Z,-3.04
2022-12-14T23:40:49.758Z,-3.05
2022-12-14T23:43:39.358Z,-3.03
2022-12-14T23:46:29.186Z,-3.02
2022-12-14T23:49:18.999Z,-3.02
2022-12-14T23:52:08.558Z,-3.02
2022-12-14T23:54:58.318Z,-3.01
2022-12-14T23:57:47.805Z,-2.95
